createdAt,value
2018-08-06T00:02:07.712Z,1.20
2018-08-06T00:04:34.888Z,1.10
2018-08-06T00:07:02.099Z,1.00
2018-08-06T00:09:29.403Z,1.20
2018-08-06T00:11:56.668Z,1.00
2018-08-06T00:14:24.081Z,1.20
2018-08-06T00:16:52.655Z,1.43
2018-08-06T00:19:19.896Z,0.97
2018-08-06T00:21:47.052Z,1.37
2018-08-06T00:24:14.353Z,1.00
2018-08-06T00:26:45.597Z,1.20
2018-08-06T00:29:13.659Z,1.03
2018-08-06T00:31:40.895Z,1.10
2018-08-06T00:34:08.320Z,1.10
2018-08-06T00:36:35.525Z,1.03
2018-08-06T00:39:05.024Z,1.17
2018-08-06T00:41:32.284Z,0.90
2018-08-06T00:43:59.481Z,1.00
2018-08-06T00:46:26.643Z,0.90
2018-08-06T00:48:53.931Z,1.00
2018-08-06T00:51:21.220Z,1.23
2018-08-06T00:53:48.428Z,0.90
2018-08-06T00:56:15.684Z,0.90
2018-08-06T00:58:42.896Z,1.00
2018-08-06T01:01:10.157Z,1.27
2018-08-06T01:03:37.376Z,0.90
2018-08-06T01:06:04.556Z,1.13
2018-08-06T01:08:31.788Z,0.90
2018-08-06T01:11:04.625Z,1.30
2018-08-06T01:13:31.851Z,1.00
2018-08-06T01:15:59.055Z,1.00
2018-08-06T01:18:26.240Z,1.10
2018-08-06T01:20:53.780Z,1.10
2018-08-06T01:23:20.961Z,1.50
2018-08-06T01:25:48.216Z,1.17
2018-08-06T01:28:15.456Z,1.20
2018-08-06T01:30:42.685Z,0.93
2018-08-06T01:33:09.957Z,1.07
2018-08-06T01:35:37.180Z,1.20
2018-08-06T01:38:04.437Z,1.30
2018-08-06T01:40:31.660Z,1.00
2018-08-06T01:42:58.842Z,0.93
2018-08-06T01:45:26.131Z,1.70
2018-08-06T01:47:53.368Z,1.20
2018-08-06T01:50:20.572Z,1.23
2018-08-06T01:52:47.756Z,1.33
2018-08-06T01:55:14.984Z,1.00
2018-08-06T01:57:42.223Z,1.87
2018-08-06T02:00:11.556Z,1.30
2018-08-06T02:02:38.776Z,0.90
2018-08-06T02:05:06.610Z,1.20
2018-08-06T02:07:33.784Z,1.20
2018-08-06T02:10:01.092Z,0.87
2018-08-06T02:12:28.316Z,1.10
2018-08-06T02:14:55.454Z,0.90
2018-08-06T02:17:22.676Z,1.00
2018-08-06T02:19:50.128Z,1.37
2018-08-06T02:22:17.396Z,1.00
2018-08-06T02:24:45.456Z,0.90
2018-08-06T02:27:12.654Z,1.00
2018-08-06T02:29:39.821Z,0.93
2018-08-06T02:32:07.120Z,1.40
2018-08-06T02:34:34.369Z,1.17
2018-08-06T02:37:01.592Z,1.20
2018-08-06T02:39:28.852Z,1.43
2018-08-06T02:41:56.046Z,1.70
2018-08-06T02:44:23.256Z,1.20
2018-08-06T02:46:50.445Z,1.20
2018-08-06T02:49:17.702Z,1.10
2018-08-06T02:51:44.935Z,1.30
2018-08-06T02:54:12.184Z,1.30
2018-08-06T02:56:39.404Z,1.30
2018-08-06T02:59:06.593Z,1.13
2018-08-06T03:01:33.764Z,1.30
2018-08-06T03:04:01.030Z,1.43
2018-08-06T03:06:28.245Z,1.23
2018-08-06T03:08:55.557Z,1.50
2018-08-06T03:11:22.740Z,1.00
2018-08-06T03:13:50.016Z,1.40
2018-08-06T03:16:17.297Z,1.20
2018-08-06T03:18:44.635Z,1.50
2018-08-06T03:21:11.924Z,1.20
2018-08-06T03:23:39.126Z,1.63
2018-08-06T03:26:06.312Z,1.20
2018-08-06T03:28:33.472Z,1.37
2018-08-06T03:31:00.661Z,1.00
2018-08-06T03:33:27.868Z,1.40
2018-08-06T03:35:55.124Z,1.27
2018-08-06T03:38:22.316Z,1.27
2018-08-06T03:40:49.516Z,1.37
2018-08-06T03:43:16.775Z,1.33
2018-08-06T03:45:44.067Z,1.57
2018-08-06T03:48:11.265Z,1.77
2018-08-06T03:50:38.489Z,1.40
2018-08-06T03:53:05.800Z,1.40
2018-08-06T03:55:32.996Z,1.57
2018-08-06T03:58:00.278Z,1.30
2018-08-06T04:00:27.497Z,1.40
2018-08-06T04:02:54.816Z,1.60
2018-08-06T04:05:22.069Z,1.30
2018-08-06T04:07:50.144Z,1.47
2018-08-06T04:10:17.399Z,1.60
2018-08-06T04:12:45.057Z,1.23
2018-08-06T04:15:12.995Z,1.00
2018-08-06T04:17:41.055Z,1.30
2018-08-06T04:20:09.424Z,1.40
2018-08-06T04:22:36.629Z,1.70
2018-08-06T04:25:04.124Z,1.30
2018-08-06T04:27:31.288Z,1.70
2018-08-06T04:29:58.472Z,1.80
2018-08-06T04:32:25.712Z,1.77
2018-08-06T04:34:53.152Z,1.40
2018-08-06T04:37:20.385Z,1.20
2018-08-06T04:39:47.616Z,1.93
2018-08-06T04:42:14.852Z,1.37
2018-08-06T04:44:42.100Z,1.30
2018-08-06T04:47:09.329Z,1.57
2018-08-06T04:49:36.580Z,1.47
2018-08-06T04:52:03.819Z,1.40
2018-08-06T04:54:31.045Z,1.60
2018-08-06T04:56:58.256Z,1.40
2018-08-06T04:59:25.456Z,1.50
2018-08-06T05:01:52.685Z,1.30
2018-08-06T05:04:19.936Z,1.60
2018-08-06T05:06:47.240Z,1.67
2018-08-06T05:09:19.268Z,1.63
2018-08-06T05:11:46.517Z,1.57
2018-08-06T05:14:13.704Z,1.77
2018-08-06T05:16:40.952Z,1.53
2018-08-06T05:19:08.218Z,1.73
2018-08-06T05:21:35.508Z,1.50
2018-08-06T05:24:02.744Z,1.47
2018-08-06T05:26:29.985Z,1.40
2018-08-06T05:28:57.216Z,1.77
2018-08-06T05:31:25.589Z,1.17
2018-08-06T05:33:53.860Z,1.30
2018-08-06T05:36:21.840Z,1.37
2018-08-06T05:38:49.801Z,1.27
2018-08-06T05:41:17.134Z,1.33
2018-08-06T05:43:44.496Z,1.53
2018-08-06T05:46:11.800Z,0.93
2018-08-06T05:48:39.491Z,1.30
2018-08-06T05:51:07.056Z,1.20
2018-08-06T05:53:35.273Z,1.20
2018-08-06T05:56:02.504Z,1.20
2018-08-06T05:58:29.752Z,1.73
2018-08-06T06:00:56.947Z,1.20
2018-08-06T06:03:24.153Z,1.13
2018-08-06T06:05:51.445Z,1.20
2018-08-06T06:08:18.640Z,1.27
2018-08-06T06:10:45.851Z,1.60
2018-08-06T06:13:13.156Z,1.20
2018-08-06T06:15:40.388Z,1.00
2018-08-06T06:18:07.639Z,1.00
2018-08-06T06:20:34.884Z,1.17
2018-08-06T06:23:02.104Z,1.27
2018-08-06T06:25:29.345Z,1.40
2018-08-06T06:27:56.584Z,1.10
2018-08-06T06:30:23.869Z,1.03
2018-08-06T06:32:51.158Z,1.57
2018-08-06T06:35:18.428Z,1.47
2018-08-06T06:37:45.761Z,1.27
2018-08-06T06:40:13.268Z,1.50
2018-08-06T06:42:40.504Z,1.23
2018-08-06T06:45:08.302Z,1.40
2018-08-06T06:47:35.625Z,1.20
2018-08-06T06:50:03.516Z,1.10
2018-08-06T06:52:30.716Z,1.50
2018-08-06T06:54:57.972Z,1.87
2018-08-06T06:57:25.261Z,1.30
2018-08-06T06:59:52.495Z,1.40
2018-08-06T07:02:19.636Z,1.20
2018-08-06T07:04:46.862Z,1.17
2018-08-06T07:07:14.140Z,1.27
2018-08-06T07:09:41.412Z,1.47
2018-08-06T07:12:08.636Z,1.47
2018-08-06T07:14:35.859Z,1.10
2018-08-06T07:17:03.029Z,1.20
2018-08-06T07:19:30.260Z,1.40
2018-08-06T07:21:57.500Z,1.50
2018-08-06T07:24:24.768Z,2.20
2018-08-06T07:26:52.161Z,1.37
2018-08-06T07:29:19.396Z,1.53
2018-08-06T07:31:46.777Z,1.83
2018-08-06T07:34:14.113Z,1.43
2018-08-06T07:36:41.412Z,1.43
2018-08-06T07:39:09.868Z,1.63
2018-08-06T07:41:37.136Z,1.90
2018-08-06T07:44:04.429Z,1.57
2018-08-06T07:46:31.838Z,2.30
2018-08-06T07:48:59.069Z,1.50
2018-08-06T07:51:26.368Z,1.87
2018-08-06T07:53:53.704Z,1.70
2018-08-06T07:56:20.950Z,1.60
2018-08-06T07:58:48.109Z,1.90
2018-08-06T08:01:15.432Z,1.50
2018-08-06T08:03:42.652Z,1.70
2018-08-06T08:06:09.912Z,1.80
2018-08-06T08:08:37.171Z,1.40
2018-08-06T08:11:04.425Z,1.77
2018-08-06T08:13:31.668Z,1.60
2018-08-06T08:15:58.893Z,1.97
2018-08-06T08:18:26.152Z,2.00
2018-08-06T08:20:53.380Z,1.80
2018-08-06T08:23:20.619Z,1.73
2018-08-06T08:25:47.804Z,1.53
2018-08-06T08:28:15.051Z,1.77
2018-08-06T08:30:42.273Z,1.60
2018-08-06T08:33:09.507Z,1.60
2018-08-06T08:35:36.734Z,1.47
2018-08-06T08:38:03.922Z,1.90
2018-08-06T08:40:31.132Z,1.50
2018-08-06T08:42:58.353Z,2.20
2018-08-06T08:45:25.675Z,1.60
2018-08-06T08:47:52.827Z,1.60
2018-08-06T08:50:20.286Z,1.70
2018-08-06T08:52:47.592Z,2.03
2018-08-06T08:55:16.227Z,2.17
2018-08-06T08:57:43.576Z,1.60
2018-08-06T09:00:13.495Z,1.90
2018-08-06T09:02:41.552Z,1.30
2018-08-06T09:05:08.867Z,1.83
2018-08-06T09:07:36.781Z,1.60
2018-08-06T09:10:04.688Z,1.70
2018-08-06T09:12:31.898Z,1.43
2018-08-06T09:14:59.108Z,1.37
2018-08-06T09:17:26.359Z,1.40
2018-08-06T09:19:53.583Z,1.60
2018-08-06T09:22:20.926Z,1.40
2018-08-06T09:24:48.196Z,1.87
2018-08-06T09:27:15.600Z,2.00
2018-08-06T09:29:42.808Z,1.87
2018-08-06T09:32:10.070Z,1.93
2018-08-06T09:34:37.327Z,1.90
2018-08-06T09:37:04.620Z,1.60
2018-08-06T09:39:31.829Z,1.93
2018-08-06T09:41:59.068Z,1.50
2018-08-06T09:44:26.308Z,1.50
2018-08-06T09:46:53.530Z,2.33
2018-08-06T09:49:20.748Z,1.77
2018-08-06T09:51:48.016Z,1.37
2018-08-06T09:54:15.488Z,2.27
2018-08-06T09:56:42.695Z,1.90
2018-08-06T09:59:09.896Z,1.90
2018-08-06T10:01:42.917Z,1.73
2018-08-06T10:04:10.160Z,1.63
2018-08-06T10:06:37.497Z,2.00
2018-08-06T10:09:07.200Z,2.17
2018-08-06T10:11:34.480Z,1.73
2018-08-06T10:14:01.745Z,2.00
2018-08-06T10:16:29.020Z,1.77
2018-08-06T10:18:56.316Z,1.70
2018-08-06T10:21:23.452Z,1.50
2018-08-06T10:23:51.188Z,1.83
2018-08-06T10:26:18.475Z,1.70
2018-08-06T10:28:45.762Z,1.33
2018-08-06T10:31:13.056Z,2.13
2018-08-06T10:33:40.272Z,1.90
2018-08-06T10:36:07.612Z,2.03
2018-08-06T10:38:34.856Z,2.10
2018-08-06T10:41:02.158Z,1.70
2018-08-06T10:43:29.444Z,1.90
2018-08-06T10:45:56.675Z,1.70
2018-08-06T10:48:24.035Z,1.70
2018-08-06T10:50:51.740Z,2.03
2018-08-06T10:53:19.067Z,1.57
2018-08-06T10:55:46.357Z,1.60
2018-08-06T10:58:15.201Z,1.70
2018-08-06T11:00:42.633Z,1.60
2018-08-06T11:03:09.820Z,1.50
2018-08-06T11:05:37.040Z,1.80
2018-08-06T11:08:04.616Z,1.73
2018-08-06T11:10:31.857Z,1.57
2018-08-06T11:12:59.070Z,1.70
2018-08-06T11:15:26.592Z,2.13
2018-08-06T11:17:53.816Z,2.13
2018-08-06T11:20:21.594Z,1.40
2018-08-06T11:22:48.801Z,2.07
2018-08-06T11:25:18.263Z,2.00
2018-08-06T11:27:45.536Z,1.47
2018-08-06T11:30:14.674Z,1.40
2018-08-06T11:32:42.075Z,1.70
2018-08-06T11:35:09.884Z,1.70
2018-08-06T11:37:37.291Z,2.17
2018-08-06T11:40:05.599Z,2.00
2018-08-06T11:42:32.815Z,1.83
2018-08-06T11:45:00.123Z,2.20
2018-08-06T11:47:27.288Z,1.80
2018-08-06T11:49:54.667Z,1.60
2018-08-06T11:52:21.911Z,1.83
2018-08-06T11:54:49.187Z,1.87
2018-08-06T11:57:16.392Z,2.90
2018-08-06T11:59:43.593Z,1.87
2018-08-06T12:02:10.828Z,1.90
2018-08-06T12:04:38.099Z,1.70
2018-08-06T12:07:05.320Z,1.60
2018-08-06T12:09:32.507Z,1.73
2018-08-06T12:11:59.732Z,2.30
2018-08-06T12:14:26.968Z,1.60
2018-08-06T12:16:54.443Z,1.97
2018-08-06T12:19:21.707Z,1.87
2018-08-06T12:21:48.996Z,2.00
2018-08-06T12:24:16.184Z,1.80
2018-08-06T12:26:43.525Z,2.20
2018-08-06T12:29:10.729Z,1.60
2018-08-06T12:31:37.970Z,1.90
2018-08-06T12:34:05.514Z,2.30
2018-08-06T12:36:32.736Z,2.20
2018-08-06T12:39:16.016Z,1.90
2018-08-06T12:41:43.228Z,2.23
2018-08-06T12:44:11.596Z,2.00
2018-08-06T12:46:39.154Z,2.03
2018-08-06T12:49:06.931Z,2.43
2018-08-06T12:51:34.156Z,1.83
2018-08-06T12:54:01.325Z,2.20
2018-08-06T12:56:28.596Z,2.53
2018-08-06T12:58:56.546Z,2.40
2018-08-06T13:01:23.789Z,1.97
2018-08-06T13:03:51.007Z,1.90
2018-08-06T13:06:18.299Z,2.40
2018-08-06T13:08:45.800Z,2.97
2018-08-06T13:11:13.428Z,2.47
2018-08-06T13:13:40.669Z,1.90
2018-08-06T13:16:07.932Z,2.13
2018-08-06T13:18:35.190Z,2.80
2018-08-06T13:21:02.436Z,2.40
2018-08-06T13:23:30.172Z,2.97
2018-08-06T13:25:57.441Z,2.17
2018-08-06T13:28:24.652Z,1.80
2018-08-06T13:30:51.903Z,2.43
2018-08-06T13:33:19.977Z,2.67
2018-08-06T13:35:47.176Z,3.00
2018-08-06T13:38:14.399Z,2.77
2018-08-06T13:40:41.627Z,2.60
2018-08-06T13:43:08.922Z,2.80
2018-08-06T13:45:36.120Z,3.00
2018-08-06T13:48:03.457Z,2.60
2018-08-06T13:50:30.771Z,2.70
2018-08-06T13:52:58.055Z,2.50
2018-08-06T13:55:25.252Z,2.93
2018-08-06T13:57:52.524Z,2.90
2018-08-06T14:00:19.748Z,2.17
2018-08-06T14:02:47.266Z,2.63
2018-08-06T14:05:15.576Z,2.43
2018-08-06T14:07:43.904Z,2.33
2018-08-06T14:10:11.104Z,2.50
2018-08-06T14:12:38.512Z,2.27
2018-08-06T14:15:07.474Z,1.87
2018-08-06T14:17:34.881Z,2.47
2018-08-06T14:20:02.541Z,2.03
2018-08-06T14:22:29.772Z,2.20
2018-08-06T14:24:56.986Z,1.60
2018-08-06T14:27:24.178Z,2.23
2018-08-06T14:29:51.393Z,3.10
2018-08-06T14:32:18.542Z,2.37
2018-08-06T14:34:45.759Z,2.73
2018-08-06T14:37:12.916Z,2.73
2018-08-06T14:39:40.112Z,2.40
2018-08-06T14:42:07.344Z,3.20
2018-08-06T14:44:34.627Z,3.00
2018-08-06T14:47:01.915Z,2.60
2018-08-06T14:49:29.194Z,3.10
2018-08-06T14:51:56.650Z,3.10
2018-08-06T14:54:23.968Z,3.23
2018-08-06T14:56:51.184Z,3.10
2018-08-06T14:59:18.440Z,2.50
2018-08-06T15:01:45.672Z,2.47
2018-08-06T15:04:12.856Z,2.03
2018-08-06T15:06:40.081Z,2.30
2018-08-06T15:09:08.849Z,3.00
2018-08-06T15:11:36.168Z,2.90
2018-08-06T15:14:03.996Z,2.80
2018-08-06T15:16:31.244Z,3.43
2018-08-06T15:18:58.542Z,3.33
2018-08-06T15:21:25.748Z,2.83
2018-08-06T15:23:52.972Z,3.00
2018-08-06T15:26:20.290Z,2.80
2018-08-06T15:28:47.492Z,2.23
2018-08-06T15:31:14.745Z,2.30
2018-08-06T15:33:42.006Z,2.80
2018-08-06T15:36:09.284Z,2.40
2018-08-06T15:38:36.537Z,2.90
2018-08-06T15:41:03.749Z,2.93
2018-08-06T15:43:31.051Z,2.43
2018-08-06T15:45:58.288Z,2.50
2018-08-06T15:48:25.488Z,2.70
2018-08-06T15:50:53.248Z,2.90
2018-08-06T15:53:20.489Z,2.40
2018-08-06T15:55:47.697Z,2.47
2018-08-06T15:58:14.946Z,2.70
2018-08-06T16:00:42.212Z,3.37
2018-08-06T16:03:09.408Z,3.37
2018-08-06T16:05:36.648Z,3.53
2018-08-06T16:08:04.231Z,2.40
2018-08-06T16:10:31.575Z,2.60
2018-08-06T16:12:58.789Z,2.60
2018-08-06T16:15:26.083Z,2.30
2018-08-06T16:17:53.364Z,2.80
2018-08-06T16:20:20.588Z,2.87
2018-08-06T16:22:47.839Z,3.13
2018-08-06T16:25:15.471Z,3.30
2018-08-06T16:27:42.643Z,2.87
2018-08-06T16:30:20.097Z,2.00
2018-08-06T16:32:47.836Z,2.70
2018-08-06T16:35:16.371Z,3.07
2018-08-06T16:37:43.591Z,3.07
2018-08-06T16:40:11.359Z,3.10
2018-08-06T16:42:39.636Z,3.27
2018-08-06T16:45:07.614Z,3.80
2018-08-06T16:47:35.373Z,3.40
2018-08-06T16:50:02.649Z,3.07
2018-08-06T16:52:29.982Z,4.93
2018-08-06T16:54:57.152Z,2.90
2018-08-06T16:57:24.429Z,3.33
2018-08-06T16:59:51.661Z,3.70
2018-08-06T17:02:18.915Z,3.30
2018-08-06T17:04:46.140Z,3.40
2018-08-06T17:07:13.380Z,3.80
2018-08-06T17:09:40.588Z,4.00
2018-08-06T17:12:07.840Z,3.90
2018-08-06T17:14:35.050Z,2.87
2018-08-06T17:17:02.275Z,3.50
2018-08-06T17:19:29.605Z,3.10
2018-08-06T17:21:56.936Z,3.63
2018-08-06T17:24:24.066Z,3.10
2018-08-06T17:26:51.325Z,3.33
2018-08-06T17:29:18.575Z,3.27
2018-08-06T17:31:45.760Z,3.57
2018-08-06T17:34:12.994Z,3.83
2018-08-06T17:36:40.220Z,4.90
2018-08-06T17:39:08.660Z,4.10
2018-08-06T17:41:36.004Z,3.90
2018-08-06T17:44:03.418Z,2.80
2018-08-06T17:46:30.612Z,3.30
2018-08-06T17:48:57.815Z,3.23
2018-08-06T17:51:25.052Z,3.80
2018-08-06T17:53:52.321Z,4.00
2018-08-06T17:56:19.553Z,2.97
2018-08-06T17:58:46.764Z,3.50
2018-08-06T18:01:14.128Z,3.70
2018-08-06T18:03:41.308Z,3.17
2018-08-06T18:06:08.527Z,3.40
2018-08-06T18:08:35.720Z,3.23
2018-08-06T18:11:02.924Z,3.40
2018-08-06T18:13:30.181Z,3.20
2018-08-06T18:15:57.352Z,3.30
2018-08-06T18:18:24.547Z,5.33
2018-08-06T18:20:51.780Z,6.03
2018-08-06T18:23:18.984Z,6.10
2018-08-06T18:25:46.149Z,5.50
2018-08-06T18:28:13.464Z,4.17
2018-08-06T18:30:40.786Z,3.60
2018-08-06T18:33:08.104Z,3.60
2018-08-06T18:35:35.323Z,4.03
2018-08-06T18:38:02.613Z,3.70
2018-08-06T18:40:29.817Z,3.73
2018-08-06T18:42:57.080Z,3.53
2018-08-06T18:45:24.315Z,4.40
2018-08-06T18:47:51.715Z,4.00
2018-08-06T18:50:19.384Z,3.90
2018-08-06T18:52:47.359Z,3.90
2018-08-06T18:55:15.135Z,3.50
2018-08-06T18:57:42.843Z,4.30
2018-08-06T19:00:13.550Z,3.50
2018-08-06T19:02:40.792Z,3.80
2018-08-06T19:05:08.524Z,3.60
2018-08-06T19:07:35.796Z,3.80
2018-08-06T19:10:03.665Z,3.90
2018-08-06T19:12:36.607Z,3.20
2018-08-06T19:15:04.407Z,3.73
2018-08-06T19:17:31.675Z,3.97
2018-08-06T19:19:58.908Z,4.13
2018-08-06T19:22:26.140Z,4.20
2018-08-06T19:24:59.092Z,3.60
2018-08-06T19:27:27.069Z,3.73
2018-08-06T19:29:54.260Z,3.90
2018-08-06T19:32:21.540Z,3.50
2018-08-06T19:34:49.399Z,3.30
2018-08-06T19:37:22.244Z,3.17
2018-08-06T19:39:49.592Z,4.10
2018-08-06T19:42:16.822Z,3.53
2018-08-06T19:44:44.004Z,3.77
2018-08-06T19:47:11.260Z,3.20
2018-08-06T19:50:47.010Z,3.30
2018-08-06T19:53:14.312Z,4.10
2018-08-06T19:55:47.320Z,3.67
2018-08-06T19:58:14.560Z,3.93
2018-08-06T20:00:41.770Z,3.47
2018-08-06T20:03:09.001Z,4.00
2018-08-06T20:05:37.036Z,4.30
2018-08-06T20:08:04.349Z,4.40
2018-08-06T20:10:31.591Z,3.60
2018-08-06T20:12:58.805Z,4.30
2018-08-06T20:15:26.066Z,3.50
2018-08-06T20:17:53.350Z,3.80
2018-08-06T20:20:20.556Z,3.50
2018-08-06T20:22:47.818Z,3.43
2018-08-06T20:25:18.841Z,3.07
2018-08-06T20:27:47.545Z,3.90
2018-08-06T20:30:16.679Z,3.97
2018-08-06T20:32:43.916Z,3.10
2018-08-06T20:35:13.022Z,3.60
2018-08-06T20:37:40.313Z,3.60
2018-08-06T20:40:08.592Z,3.60
2018-08-06T20:42:37.056Z,3.20
2018-08-06T20:45:06.237Z,3.97
2018-08-06T20:47:33.400Z,4.20
2018-08-06T20:50:00.668Z,3.90
2018-08-06T20:52:27.964Z,3.77
2018-08-06T20:54:55.245Z,3.73
2018-08-06T20:57:22.536Z,4.07
2018-08-06T20:59:49.748Z,3.57
2018-08-06T21:02:17.241Z,3.40
2018-08-06T21:04:45.104Z,3.23
2018-08-06T21:07:12.356Z,3.20
2018-08-06T21:09:39.532Z,4.40
2018-08-06T21:12:06.724Z,3.50
2018-08-06T21:14:33.988Z,3.50
2018-08-06T21:17:01.228Z,3.20
2018-08-06T21:19:28.520Z,3.77
2018-08-06T21:21:55.694Z,2.77
2018-08-06T21:24:22.924Z,3.90
2018-08-06T21:26:50.164Z,2.90
2018-08-06T21:29:17.350Z,3.70
2018-08-06T21:31:44.785Z,3.80
2018-08-06T21:34:12.033Z,3.67
2018-08-06T21:36:39.240Z,3.10
2018-08-06T21:39:08.516Z,2.70
2018-08-06T21:41:35.776Z,2.97
2018-08-06T21:44:03.389Z,2.70
2018-08-06T21:46:30.685Z,2.97
2018-08-06T21:48:57.852Z,3.03
2018-08-06T21:51:25.065Z,3.50
2018-08-06T21:53:52.245Z,2.93
2018-08-06T21:56:19.424Z,3.20
2018-08-06T21:58:46.599Z,3.40
2018-08-06T22:01:13.900Z,3.50
2018-08-06T22:03:41.088Z,3.00
2018-08-06T22:06:08.288Z,2.83
2018-08-06T22:08:35.470Z,2.90
2018-08-06T22:11:02.769Z,3.20
2018-08-06T22:13:30.008Z,2.97
2018-08-06T22:15:57.272Z,2.97
2018-08-06T22:18:24.459Z,2.50
2018-08-06T22:20:51.616Z,2.83
2018-08-06T22:23:18.844Z,3.00
2018-08-06T22:25:46.128Z,2.50
2018-08-06T22:28:13.357Z,2.13
2018-08-06T22:30:40.636Z,2.70
2018-08-06T22:33:07.821Z,2.50
2018-08-06T22:35:35.118Z,2.90
2018-08-06T22:38:02.384Z,2.33
2018-08-06T22:40:29.592Z,2.60
2018-08-06T22:42:56.776Z,2.63
2018-08-06T22:45:24.016Z,2.83
2018-08-06T22:47:51.200Z,2.60
2018-08-06T22:50:18.415Z,2.97
2018-08-06T22:52:45.595Z,2.50
2018-08-06T22:55:13.057Z,2.73
2018-08-06T22:57:40.833Z,2.53
2018-08-06T23:00:09.537Z,2.60
2018-08-06T23:02:36.751Z,2.60
2018-08-06T23:05:04.761Z,2.30
2018-08-06T23:07:32.017Z,2.50
2018-08-06T23:09:59.205Z,2.77
2018-08-06T23:12:26.412Z,2.20
2018-08-06T23:14:53.626Z,2.40
2018-08-06T23:17:20.918Z,2.20
2018-08-06T23:19:48.173Z,2.40
2018-08-06T23:22:15.376Z,2.43
2018-08-06T23:24:42.584Z,2.43
2018-08-06T23:27:09.856Z,2.67
2018-08-06T23:29:37.107Z,2.50
2018-08-06T23:32:04.349Z,2.40
2018-08-06T23:34:31.787Z,2.60
2018-08-06T23:36:59.096Z,2.60
2018-08-06T23:39:26.315Z,2.43
2018-08-06T23:41:53.560Z,2.70
2018-08-06T23:44:20.803Z,2.20
2018-08-06T23:46:47.986Z,2.53
2018-08-06T23:49:15.288Z,1.87
2018-08-06T23:51:42.520Z,2.13
2018-08-06T23:54:09.722Z,2.03
2018-08-06T23:56:37.019Z,1.90
2018-08-06T23:59:04.555Z,2.67
